• Join FlightAware (Why Join?)
  • Login
  • US Flag 
08:20PM EST


 

Airport Tracker/Info


-or-


 

Live Flight TrackerFlight Track Log ✈ N102WT ✈ 29-Aug-2014 ✈ KMVY - KALB

Flight Track Log - Related Links

Times and Time Zones

All times are in EDT time to prevent confusion due to time zone crossing. See the N102WT flight status page for this flight to view local times or setup timezone preferences in your user account.

Time Position Orientation Groundspeed Altitude Reporting Facility
EDT Latitude Longitude Course Direction KTS MPH feet Rate Location/Type
05:09PM 41.4611 -70.5650 337° Northwest 124 143 3,000  Level Boston Center
05:10PM 41.4667 -70.5814 294° West 128 147 3,400 980 Climbing Boston Center
05:10PM 41.4714 -70.6003 288° West 127 146 3,800 871 Climbing Boston Center
05:11PM 41.4811 -70.6278 295° West 128 147 4,300 700 Climbing Boston Center
05:11PM 41.4817 -70.6467 272° West 128 147 4,500 787 Climbing Boston Center
05:12PM 41.4947 -70.6739 303° West 131 151 5,100 787 Climbing Boston Center
05:12PM 41.5008 -70.6908 296° West 139 160 5,300 774 Climbing Boston Center
05:13PM 41.5274 -70.9141 312° West  Level Estimated
05:13PM 41.5164 -70.7217 304° West 138 159 5,900  Level Boston Center
05:13PM 41.5197 -70.7375 286° West 143 165 6,000 677 Climbing Boston Center
05:14PM 41.5496 -70.9642 270° West  Level Estimated
05:14PM 41.5350 -70.7700 302° West 142 163 6,600  Level Boston Center
05:14PM 41.5397 -70.7878 290° West 147 169 6,700 871 Climbing Boston Center
05:15PM 41.5542 -70.8183 302° West 146 168 7,500 984 Climbing Boston Center
05:15PM 41.5581 -70.8372 285° West 142 163 7,700 581 Climbing Boston Center
05:16PM 41.5697 -70.8692 296° West 143 165 8,100 269 Climbing Boston Center
05:16PM 41.5750 -70.8919 287° West 153 176 8,000 -97 Descending Boston Center
05:17PM 41.5867 -70.9294 293° West 171 197 8,000  Level Boston Center
05:17PM 41.5917 -70.9497 288° West 189 217 8,000  Level Boston Center
05:18PM 41.6064 -71.0000 291° West 185 213 8,000  Level Boston Center
05:18PM 41.6128 -71.0264 288° West 190 219 8,000  Level Boston Center
05:19PM 41.6281 -71.0675 296° West 194 223 8,000 109 Level Boston Center
05:19PM 41.6353 -71.0861 297° West 204 235 8,100  Climbing Boston Center
05:20PM 41.6428 -71.1403 281° West 193 222 8,000 -98 Descending Boston Center
05:20PM 41.6444 -71.1583 277° West 193 222 8,000  Level Boston Center
05:21PM 41.6614 -71.2078 295° West 194 223 8,000  Level Boston Center
05:22PM 41.6728 -71.2319 302° West 193 222 8,000  Level Boston Center
05:23PM 41.7089 -71.2883 311° West 188 216 8,000  Level Boston Center
05:23PM 41.7242 -71.3256 299° West 191 220 8,000  Level Boston Center
05:24PM 41.7306 -71.3508 289° West 193 222 8,000 97 Level Boston Center
05:24PM 41.7500 -71.3942 301° West 191 220 8,100 100 Climbing Boston Center
05:25PM 41.7589 -71.4131 302° West 191 220 8,100 -97 Level Boston Center
05:25PM 41.7783 -71.4531 303° West 191 220 8,000 -90 Descending Boston Center
05:26PM 41.7900 -71.4822 298° West 192 221 8,000 97 Level Boston Center
05:26PM 41.8075 -71.5183 303° West 191 220 8,100  Climbing Boston Center
05:26PM 41.8125 -71.5308 298° West 191 220 8,000 -97 Descending Boston Center
05:27PM 41.8342 -71.5789 301° West 191 220 8,000 98 Level Boston Center
05:28PM 41.8408 -71.5933 302° West 189 217 8,100  Climbing Boston Center
05:29PM 41.8689 -71.6558 301° West 191 220 8,000 -53 Descending Boston Center
05:29PM 41.8911 -71.7042 302° West 191 220 8,000  Level Boston Center
05:30PM 41.8997 -71.7256 298° West 191 220 8,000  Level Boston Center
05:30PM 41.9208 -71.7694 303° West 191 220 8,000  Level Boston Center
05:31PM 41.9267 -71.7867 294° West 190 219 8,000  Level Boston Center
05:31PM 41.9475 -71.8300 303° West 190 219 8,000  Level Boston Center
05:32PM 41.9531 -71.8506 290° West 190 219 8,000  Level Boston Center
05:32PM 41.9703 -71.8997 295° West 190 219 8,000  Level Boston Center
05:33PM 41.9731 -71.9150 284° West 189 217 8,000 97 Level Boston Center
05:34PM 41.9844 -71.9700 286° West 190 219 8,100  Climbing Boston Center
05:34PM 41.9878 -71.9836 288° West 188 216 8,000  Descending Boston Center
05:35PM 42.0181 -72.0203 318° Northwest 182 209 8,100  Climbing Boston Center
05:35PM 42.0314 -72.0364 318° Northwest 188 216 8,000  Descending Boston Center
05:36PM 42.0492 -72.0808 298° West 191 220 8,100 109 Climbing Boston Center
05:36PM 42.0528 -72.0931 292° West 189 217 8,100  Level Boston Center
05:37PM 42.0772 -72.1408 305° West 192 221 8,100  Level Boston Center
05:37PM 42.0819 -72.1522 299° West 189 217 8,100 -97 Level Boston Center
05:38PM 42.1086 -72.2031 305° West 192 221 8,000 -90 Descending Boston Center
05:38PM 42.1144 -72.2186 297° West 187 215 8,000 97 Level Boston Center
05:39PM 42.1342 -72.2628 301° West 186 214 8,100  Climbing Boston Center
05:39PM 42.1411 -72.2803 298° West 186 214 8,000 -97 Descending Boston Center
05:40PM 42.1614 -72.3286 300° West 187 215 8,000  Level Boston Center
05:40PM 42.1658 -72.3411 296° West 186 214 8,000  Level Boston Center
05:41PM 42.1906 -72.4019 299° West 184 212 8,000  Level Boston Center
05:42PM 42.2128 -72.4536 300° West 184 212 8,000  Level Boston Center
05:42PM 42.2153 -72.4631 290° West 182 209 8,000  Level Boston Center
05:43PM 42.2378 -72.5128 301° West 183 211 8,000  Level Boston Center
05:44PM 42.2644 -72.5775 299° West 184 212 8,000 -305 Level Boston Center
05:45PM 42.2864 -72.6367 297° West 199 229 7,400 -513 Descending Boston Center
05:46PM 42.3139 -72.7047 299° West 200 230 7,000 -443 Descending Boston Center
05:47PM 42.3400 -72.7692 299° West 201 231 6,500 -532 Descending Boston Center
05:47PM 42.3478 -72.7889 298° West 202 232 6,300 -393 Descending Boston Center
05:48PM 42.3686 -72.8417 298° West 200 230 6,100 -340 Descending Boston Center
05:48PM 42.3739 -72.8503 310° West 200 230 6,000 -109 Descending Boston Center
05:49PM 42.3928 -72.8986 298° West 193 222 6,000  Level Boston Center
05:49PM 42.3997 -72.9117 306° West 189 217 6,000  Level Boston Center
05:50PM 42.4181 -72.9617 296° West 173 199 6,000  Level Boston Center
05:50PM 42.4244 -72.9731 307° West 177 204 6,000  Level Boston Center
05:51PM 42.4403 -73.0181 296° West 169 194 6,000  Level Boston Center
05:51PM 42.4469 -73.0308 305° West 175 201 6,000  Level Boston Center
05:52PM 42.4711 -73.0911 299° West 173 199 6,000  Level Boston Center
05:53PM 42.4947 -73.1478 299° West 173 199 6,000  Level Boston Center
05:54PM 42.5192 -73.2092 298° West 173 199 6,000  Level Boston Center
05:55PM 42.5406 -73.2736 294° West 175 201 6,000 -52 Level Boston Center
05:56PM 42.5575 -73.3228 295° West 175 201 5,900 -382 Descending Boston Center
05:57PM 42.5850 -73.3839 301° West 188 216 5,300 -592 Descending Boston Center
05:57PM 42.5897 -73.3947 301° West 191 220 5,200 -300 Descending Boston Center
05:58PM 42.6100 -73.4475 298° West 196 226 5,000 -194 Descending Boston Center
05:58PM 42.6147 -73.4572 303° West 191 220 5,000  Level Boston Center
05:59PM 42.6303 -73.5008 296° West 176 203 5,000  Level Boston Center
05:59PM 42.6375 -73.5178 300° West 170 196 5,000 -296 Level Boston Center
06:00PM 42.6572 -73.5692 298° West 159 183 4,600 -524 Descending Boston Center
06:01PM 42.6489 -73.6114 255° West 166 191 4,100 -677 Descending Boston Center
06:01PM 42.6464 -73.6342 262° West 166 191 3,900 -600 Descending Boston Center
06:02PM 42.6383 -73.6692 253° West 159 183 3,500 -571 Descending Boston Center
06:03PM 42.6347 -73.6917 258° West 162 186 3,300 -492 Descending Boston Center
06:03PM 42.6389 -73.7244 280° West 158 182 3,000 -871 Descending Boston Center
06:04PM 42.6522 -73.7447 312° West 158 182 2,400 -1,279 Descending Boston Center
06:04PM 42.6664 -73.7744 303° West 151 174 1,700 -871 Descending Boston Center
06:05PM 42.6781 -73.7878 320° Northwest 149 171 1,500 -545 Descending Boston Center
06:05PM 42.6997 -73.8031 333° Northwest 133 153 1,100 -774 Descending Boston Center
06:06PM 42.7156 -73.8047 356° North 137 158 700 -689 Descending Boston Center
06:06PM 42.7361 -73.8039 North 126 145 400 -387 Descending Boston Center
06:07PM 42.7447 -73.8056 352° North 111 128 300 -261 Descending Boston Center
06:09PM 42.7333 -73.8000 North  Level FlightAware Approximate